createdAt,value
2017-10-03T00:00:22.906Z,13.9
2017-10-03T00:05:07.564Z,13.8
2017-10-03T00:10:10.497Z,13.8
2017-10-03T00:15:18.312Z,13.7
2017-10-03T00:20:08.069Z,13.6
2017-10-03T00:25:02.778Z,13.6
2017-10-03T00:30:15.311Z,13.6
2017-10-03T00:35:07.474Z,13.6
2017-10-03T00:40:10.405Z,13.5
2017-10-03T00:45:05.576Z,13.5
2017-10-03T00:50:02.978Z,13.5
2017-10-03T00:55:02.598Z,13.5
2017-10-03T01:00:02.451Z,13.4
2017-10-03T01:05:05.663Z,13.3
2017-10-03T01:10:05.107Z,13.3
2017-10-03T01:15:02.736Z,13.3
2017-10-03T01:20:07.666Z,13.1
2017-10-03T01:25:03.308Z,13.1
2017-10-03T01:30:25.896Z,13
2017-10-03T01:35:05.465Z,13
2017-10-03T01:40:08.444Z,13
2017-10-03T01:45:02.600Z,13
2017-10-03T01:50:02.530Z,13
2017-10-03T01:55:05.796Z,12.9
2017-10-03T02:00:05.571Z,12.8
2017-10-03T02:05:05.413Z,12.8
2017-10-03T02:10:03.209Z,12.7
2017-10-03T02:15:15.111Z,12.7
2017-10-03T02:25:05.685Z,12.7
2017-10-03T02:30:03.016Z,12.7
2017-10-03T02:35:10.312Z,12.6
2017-10-03T02:40:10.703Z,12.6
2017-10-03T02:45:02.391Z,12.6
2017-10-03T02:50:08.203Z,12.6
2017-10-03T02:55:05.516Z,12.5
2017-10-03T03:00:02.838Z,12.5
2017-10-03T03:05:02.618Z,12.5
2017-10-03T03:10:02.969Z,12.6
2017-10-03T03:15:08.273Z,12.6
2017-10-03T03:20:20.803Z,12.5
2017-10-03T03:25:02.833Z,12.5
2017-10-03T03:30:27.997Z,12.5
2017-10-03T03:35:07.516Z,12.5
2017-10-03T03:40:12.919Z,12.5
2017-10-03T03:45:20.762Z,12.4
2017-10-03T03:50:07.965Z,12.4
2017-10-03T03:55:07.695Z,12.4
2017-10-03T04:00:20.201Z,12.4
2017-10-03T04:05:08.353Z,12.5
2017-10-03T04:10:05.229Z,12.5
2017-10-03T04:15:28.217Z,12.4
2017-10-03T04:20:02.748Z,12.4
2017-10-03T04:25:02.573Z,12.4
2017-10-03T04:30:03.367Z,12.4
2017-10-03T04:35:05.637Z,12.4
2017-10-03T04:40:04.970Z,12.4
2017-10-03T04:45:07.644Z,12.3
2017-10-03T04:50:10.084Z,12.3
2017-10-03T04:55:03.175Z,12.3
2017-10-03T05:00:05.557Z,12.3
2017-10-03T05:10:03.242Z,12.2
2017-10-03T05:15:26.145Z,12.2
2017-10-03T05:20:05.758Z,12.2
2017-10-03T05:25:07.994Z,12.2
2017-10-03T05:30:05.296Z,12.2
2017-10-03T05:35:02.519Z,12.1
2017-10-03T05:40:10.388Z,12.2
2017-10-03T05:45:08.120Z,12.2
2017-10-03T05:50:20.633Z,12.3
2017-10-03T05:55:17.828Z,12.3
2017-10-03T06:00:02.604Z,12.3
2017-10-03T06:05:38.696Z,12.4
2017-10-03T06:10:10.241Z,12.4
2017-10-03T06:15:05.485Z,12.5
2017-10-03T06:20:02.772Z,12.5
2017-10-03T06:25:02.440Z,12.5
2017-10-03T06:30:15.960Z,12.5
2017-10-03T06:35:08.074Z,12.5
2017-10-03T06:40:08.441Z,12.4
2017-10-03T06:45:08.233Z,12.4
2017-10-03T06:50:03.325Z,12.4
2017-10-03T06:55:23.311Z,12.6
2017-10-03T07:00:05.413Z,12.6
2017-10-03T07:05:05.134Z,12.7
2017-10-03T07:10:20.927Z,12.8
2017-10-03T07:15:10.827Z,12.9
2017-10-03T07:20:05.752Z,13
2017-10-03T07:25:18.126Z,13
2017-10-03T07:30:05.319Z,13
2017-10-03T07:35:20.293Z,12.9
2017-10-03T07:40:02.966Z,12.9
2017-10-03T07:45:03.267Z,12.9
2017-10-03T07:50:03.087Z,12.9
2017-10-03T07:55:02.796Z,12.9
2017-10-03T08:00:33.019Z,13.1
2017-10-03T08:05:04.980Z,13.1
2017-10-03T08:10:12.954Z,13.2
2017-10-03T08:15:02.996Z,13.2
2017-10-03T08:20:05.412Z,13.6
2017-10-03T08:25:02.628Z,13.6
2017-10-03T08:30:05.035Z,13.8
2017-10-03T08:35:03.257Z,13.8
2017-10-03T08:40:22.998Z,13.9
2017-10-03T08:45:05.496Z,13.9
2017-10-03T08:50:10.433Z,13.9
2017-10-03T08:55:17.859Z,14
2017-10-03T09:00:10.066Z,14.1
2017-10-03T09:05:38.725Z,14.2
2017-10-03T09:10:05.252Z,14.3
2017-10-03T09:15:03.051Z,14.2
2017-10-03T09:20:05.440Z,14.3
2017-10-03T09:25:05.321Z,14.4
2017-10-03T09:30:07.745Z,14.5
2017-10-03T09:35:15.148Z,14.5
2017-10-03T09:40:02.912Z,14.5
2017-10-03T09:45:05.713Z,14.6
2017-10-03T09:50:03.097Z,14.6
2017-10-03T09:55:02.928Z,14.4
2017-10-03T10:00:13.025Z,14.8
2017-10-03T10:05:05.253Z,15
2017-10-03T10:10:25.921Z,14.9
2017-10-03T10:15:17.537Z,14.7
2017-10-03T10:20:05.798Z,14.8
2017-10-03T10:25:20.763Z,15.1
2017-10-03T10:30:02.961Z,15.1
2017-10-03T10:35:07.887Z,15.5
2017-10-03T10:40:05.769Z,15.3
2017-10-03T10:45:05.087Z,15
2017-10-03T10:50:02.459Z,15
2017-10-03T10:55:03.275Z,14.8
2017-10-03T11:00:05.736Z,15.4
2017-10-03T11:05:08.105Z,15.3
2017-10-03T11:10:05.932Z,14.1
2017-10-03T11:15:07.818Z,13.4
2017-10-03T11:20:05.179Z,13.5
2017-10-03T11:25:02.377Z,13.4
2017-10-03T11:30:25.969Z,13.5
2017-10-03T11:35:05.395Z,13.7
2017-10-03T11:40:05.756Z,13.8
2017-10-03T11:45:04.993Z,14
2017-10-03T11:50:03.387Z,14
2017-10-03T11:55:08.164Z,14.3
2017-10-03T12:00:02.921Z,14.3
2017-10-03T12:05:02.727Z,14.7
2017-10-03T12:10:03.120Z,15
2017-10-03T12:15:10.001Z,15.4
2017-10-03T12:20:03.320Z,15.4
2017-10-03T12:25:15.797Z,15.8
2017-10-03T12:30:05.652Z,16.2
2017-10-03T12:35:05.510Z,16.6
2017-10-03T12:40:05.037Z,16.9
2017-10-03T12:45:02.958Z,16.9
2017-10-03T12:50:05.628Z,17.9
2017-10-03T12:55:10.822Z,18.8
2017-10-03T13:00:04.945Z,19.7
2017-10-03T13:05:23.017Z,18.4
2017-10-03T13:10:37.966Z,17.7
2017-10-03T13:15:23.472Z,19
2017-10-03T13:20:05.059Z,18.1
2017-10-03T13:25:02.731Z,18.1
2017-10-03T13:30:20.687Z,17.5
2017-10-03T13:35:10.667Z,18.3
2017-10-03T13:40:02.816Z,18.4
2017-10-03T13:45:02.500Z,18.3
2017-10-03T13:50:02.808Z,20
2017-10-03T13:55:03.279Z,21
2017-10-03T14:00:05.212Z,21
2017-10-03T14:05:05.783Z,21.8
2017-10-03T14:10:08.361Z,21.2
2017-10-03T14:15:05.775Z,20.4
2017-10-03T14:20:02.595Z,20.4
2017-10-03T14:25:08.113Z,17.4
2017-10-03T14:30:03.287Z,17.4
2017-10-03T14:35:02.457Z,17
2017-10-03T14:40:05.576Z,16.5
2017-10-03T14:45:02.515Z,16.5
2017-10-03T14:50:10.218Z,17.7
2017-10-03T14:55:02.652Z,17.7
2017-10-03T15:00:05.343Z,18
2017-10-03T15:05:05.403Z,19.3
2017-10-03T15:10:12.629Z,19.7
2017-10-03T15:15:03.159Z,19.7
2017-10-03T15:20:03.312Z,19.3
2017-10-03T15:25:02.478Z,18.8
2017-10-03T15:30:10.201Z,17.9
2017-10-03T15:35:05.276Z,17.4
2017-10-03T15:40:05.886Z,16.9
2017-10-03T15:45:07.944Z,16.5
2017-10-03T15:50:05.408Z,16.4
2017-10-03T15:55:10.460Z,16.3
2017-10-03T16:00:07.975Z,16.2
2017-10-03T16:05:10.460Z,14.8
2017-10-03T16:10:05.896Z,13.8
2017-10-03T16:15:10.300Z,13.2
2017-10-03T16:20:02.627Z,13.2
2017-10-03T16:25:03.386Z,13
2017-10-03T16:30:05.410Z,13
2017-10-03T16:35:18.224Z,13
2017-10-03T16:40:04.884Z,13
2017-10-03T16:45:15.284Z,13
2017-10-03T16:50:07.590Z,12.9
2017-10-03T16:55:23.485Z,12.8
2017-10-03T17:00:03.108Z,12.8
2017-10-03T17:05:02.767Z,12.7
2017-10-03T17:10:05.676Z,12.7
2017-10-03T17:15:07.464Z,12.6
2017-10-03T17:20:03.248Z,12.6
2017-10-03T17:25:02.990Z,12.5
2017-10-03T17:30:20.485Z,12.6
2017-10-03T17:35:02.537Z,12.6
2017-10-03T17:40:05.396Z,12.5
2017-10-03T17:45:20.715Z,12.5
2017-10-03T17:50:05.417Z,12.6
2017-10-03T17:55:07.575Z,12.6
2017-10-03T18:00:03.366Z,12.6
2017-10-03T18:05:20.762Z,12.5
2017-10-03T18:10:05.865Z,12.4
2017-10-03T18:15:05.017Z,12.3
2017-10-03T18:20:07.537Z,12.3
2017-10-03T18:25:05.713Z,12.3
2017-10-03T18:30:20.605Z,12.2
2017-10-03T18:35:02.748Z,12.2
2017-10-03T18:40:08.093Z,12
2017-10-03T18:45:03.231Z,12
2017-10-03T18:50:05.675Z,12
2017-10-03T18:55:05.360Z,12.1
2017-10-03T19:00:02.829Z,12.1
2017-10-03T19:05:12.512Z,12.1
2017-10-03T19:10:30.611Z,12.1
2017-10-03T19:15:08.001Z,12
2017-10-03T19:20:05.227Z,12
2017-10-03T19:25:03.323Z,11.9
2017-10-03T19:30:10.719Z,11.9
2017-10-03T19:35:10.323Z,11.9
2017-10-03T19:40:08.063Z,11.8
2017-10-03T19:45:10.831Z,11.8
2017-10-03T19:50:05.571Z,11.9
2017-10-03T19:55:35.559Z,11.7
2017-10-03T20:00:22.728Z,11.6
2017-10-03T20:05:15.718Z,11.6
2017-10-03T20:10:02.374Z,11.6
2017-10-03T20:15:20.232Z,11.6
2017-10-03T20:20:04.947Z,11.6
2017-10-03T20:25:02.975Z,11.6
2017-10-03T20:30:02.770Z,11.6
2017-10-03T20:35:04.955Z,11.6
2017-10-03T20:40:07.729Z,11.5
2017-10-03T20:45:05.358Z,11.5
2017-10-03T20:50:05.146Z,11.5
2017-10-03T20:55:03.171Z,11.5
2017-10-03T21:00:07.977Z,11.4
2017-10-03T21:05:07.671Z,11.4
2017-10-03T21:10:05.353Z,11.4
2017-10-03T21:15:02.873Z,11.4
2017-10-03T21:25:05.841Z,11.4
2017-10-03T21:30:03.052Z,11.4
2017-10-03T21:35:05.240Z,11.4
2017-10-03T21:40:03.036Z,11.4
2017-10-03T21:45:08.132Z,11.4
2017-10-03T21:50:12.868Z,11.4
2017-10-03T21:55:08.358Z,11.4
2017-10-03T22:00:05.550Z,11.5
2017-10-03T22:05:05.173Z,11.5
2017-10-03T22:10:05.491Z,11.4
2017-10-03T22:15:10.627Z,11.4
2017-10-03T22:20:02.784Z,11.4
2017-10-03T22:25:05.878Z,11.4
2017-10-03T22:30:05.582Z,11.5
2017-10-03T22:35:02.586Z,11.5
2017-10-03T22:40:02.855Z,11.5
2017-10-03T22:45:02.957Z,11.5
2017-10-03T22:50:05.196Z,11.5
2017-10-03T22:55:08.252Z,11.5
2017-10-03T23:00:13.100Z,11.5
2017-10-03T23:05:10.061Z,11.4
2017-10-03T23:10:02.680Z,11.4
2017-10-03T23:15:10.437Z,11.4
2017-10-03T23:20:07.657Z,11.4
2017-10-03T23:25:03.059Z,11.4
2017-10-03T23:30:02.897Z,11.5
2017-10-03T23:35:05.006Z,11.5
2017-10-03T23:40:02.751Z,11.5
2017-10-03T23:45:02.872Z,11.6
2017-10-03T23:50:07.674Z,11.6
2017-10-03T23:55:05.726Z,11.6
